sensor_id;sensor_type;location;lat;lon;timestamp;pressure;altitude;pressure_sealevel;temperature;humidity
61292;BME280;47165;42.664;23.368;2023-01-29T00:02:00;95125.22;;;2.04;68.24
61292;BME280;47165;42.664;23.368;2023-01-29T00:04:26;95119.22;;;2.05;67.96
61292;BME280;47165;42.664;23.368;2023-01-29T00:06:51;95124.25;;;2.10;68.02
61292;BME280;47165;42.664;23.368;2023-01-29T00:09:17;95126.94;;;2.05;67.54
61292;BME280;47165;42.664;23.368;2023-01-29T00:11:43;95129.44;;;2.07;68.42
61292;BME280;47165;42.664;23.368;2023-01-29T00:14:08;95131.81;;;2.17;67.95
61292;BME280;47165;42.664;23.368;2023-01-29T00:16:34;95136.88;;;2.20;67.41
61292;BME280;47165;42.664;23.368;2023-01-29T00:19:00;95134.31;;;2.20;67.22
61292;BME280;47165;42.664;23.368;2023-01-29T00:21:26;95137.03;;;2.14;67.86
61292;BME280;47165;42.664;23.368;2023-01-29T00:23:53;95138.66;;;2.18;67.68
61292;BME280;47165;42.664;23.368;2023-01-29T00:26:19;95141.47;;;2.45;66.85
61292;BME280;47165;42.664;23.368;2023-01-29T00:28:45;95137.91;;;2.52;66.34
61292;BME280;47165;42.664;23.368;2023-01-29T00:31:19;95136.69;;;2.66;66.59
61292;BME280;47165;42.664;23.368;2023-01-29T00:33:46;95143.63;;;2.26;67.00
61292;BME280;47165;42.664;23.368;2023-01-29T00:36:13;95137.84;;;2.15;67.77
61292;BME280;47165;42.664;23.368;2023-01-29T00:38:39;95144.78;;;2.13;68.09
61292;BME280;47165;42.664;23.368;2023-01-29T00:41:09;95136.72;;;2.28;67.81
61292;BME280;47165;42.664;23.368;2023-01-29T00:43:54;95146.13;;;2.29;67.78
61292;BME280;47165;42.664;23.368;2023-01-29T00:46:38;95145.38;;;2.26;67.85
61292;BME280;47165;42.664;23.368;2023-01-29T00:49:04;95143.53;;;2.31;67.67
61292;BME280;47165;42.664;23.368;2023-01-29T00:51:30;95141.38;;;2.11;68.49
61292;BME280;47165;42.664;23.368;2023-01-29T00:53:55;95148.97;;;2.17;68.45
61292;BME280;47165;42.664;23.368;2023-01-29T00:56:23;95152.75;;;2.02;69.25
61292;BME280;47165;42.664;23.368;2023-01-29T00:58:49;95121.50;;;1.78;69.81
61292;BME280;47165;42.664;23.368;2023-01-29T01:01:14;95140.41;;;1.76;69.88
61292;BME280;47165;42.664;23.368;2023-01-29T01:03:40;95148.44;;;1.62;70.89
61292;BME280;47165;42.664;23.368;2023-01-29T01:06:09;95145.63;;;1.73;70.54
61292;BME280;47165;42.664;23.368;2023-01-29T01:08:35;95146.25;;;1.40;71.85
61292;BME280;47165;42.664;23.368;2023-01-29T01:11:20;95139.59;;;1.30;73.30
61292;BME280;47165;42.664;23.368;2023-01-29T01:13:45;95153.06;;;0.96;73.93
61292;BME280;47165;42.664;23.368;2023-01-29T01:16:13;95139.84;;;1.16;74.21
61292;BME280;47165;42.664;23.368;2023-01-29T01:18:39;95150.69;;;1.32;74.00
61292;BME280;47165;42.664;23.368;2023-01-29T01:21:05;95134.91;;;1.51;72.76
61292;BME280;47165;42.664;23.368;2023-01-29T01:23:31;95131.34;;;1.58;72.14
61292;BME280;47165;42.664;23.368;2023-01-29T01:25:56;95135.81;;;1.48;72.63
61292;BME280;47165;42.664;23.368;2023-01-29T01:28:22;95126.22;;;1.58;72.71
61292;BME280;47165;42.664;23.368;2023-01-29T01:30:47;95139.81;;;1.63;72.01
61292;BME280;47165;42.664;23.368;2023-01-29T01:33:13;95129.75;;;1.52;72.04
61292;BME280;47165;42.664;23.368;2023-01-29T01:35:40;95129.28;;;1.75;71.40
61292;BME280;47165;42.664;23.368;2023-01-29T01:38:05;95124.91;;;1.79;71.34
61292;BME280;47165;42.664;23.368;2023-01-29T01:40:31;95144.47;;;1.46;72.50
61292;BME280;47165;42.664;23.368;2023-01-29T01:42:58;95138.53;;;1.40;72.07
61292;BME280;47165;42.664;23.368;2023-01-29T01:45:30;95147.19;;;1.36;73.25
61292;BME280;47165;42.664;23.368;2023-01-29T01:53:24;95150.06;;;1.66;72.50
61292;BME280;47165;42.664;23.368;2023-01-29T01:55:57;95152.56;;;1.69;72.67
61292;BME280;47165;42.664;23.368;2023-01-29T01:58:32;95143.19;;;1.65;72.01
61292;BME280;47165;42.664;23.368;2023-01-29T02:00:59;95153.44;;;1.68;72.76
61292;BME280;47165;42.664;23.368;2023-01-29T02:03:26;95153.41;;;1.70;72.63
61292;BME280;47165;42.664;23.368;2023-01-29T02:06:11;95161.81;;;1.34;73.35
61292;BME280;47165;42.664;23.368;2023-01-29T02:09:02;95159.81;;;1.50;73.27
61292;BME280;47165;42.664;23.368;2023-01-29T02:11:48;95158.59;;;1.23;74.52
61292;BME280;47165;42.664;23.368;2023-01-29T02:14:14;95153.22;;;1.35;74.30
61292;BME280;47165;42.664;23.368;2023-01-29T02:16:40;95152.25;;;1.41;73.03
61292;BME280;47165;42.664;23.368;2023-01-29T02:19:14;95153.75;;;1.53;73.12
61292;BME280;47165;42.664;23.368;2023-01-29T02:24:39;95167.31;;;1.14;74.89
61292;BME280;47165;42.664;23.368;2023-01-29T02:27:21;95174.88;;;0.74;75.89
61292;BME280;47165;42.664;23.368;2023-01-29T02:30:08;95163.16;;;0.56;77.36
61292;BME280;47165;42.664;23.368;2023-01-29T02:32:44;95178.28;;;0.74;77.98
61292;BME280;47165;42.664;23.368;2023-01-29T02:35:44;95171.81;;;1.02;77.28
61292;BME280;47165;42.664;23.368;2023-01-29T02:41:03;95173.25;;;1.18;75.22
61292;BME280;47165;42.664;23.368;2023-01-29T02:46:48;95170.06;;;1.04;77.09
61292;BME280;47165;42.664;23.368;2023-01-29T02:49:30;95187.44;;;1.39;76.31
61292;BME280;47165;42.664;23.368;2023-01-29T02:52:12;95174.66;;;1.34;74.83
61292;BME280;47165;42.664;23.368;2023-01-29T02:54:49;95172.94;;;0.87;76.36
61292;BME280;47165;42.664;23.368;2023-01-29T02:57:25;95183.16;;;0.90;76.41
61292;BME280;47165;42.664;23.368;2023-01-29T03:02:32;95185.56;;;1.00;77.74
61292;BME280;47165;42.664;23.368;2023-01-29T03:05:05;95179.44;;;1.08;76.66
61292;BME280;47165;42.664;23.368;2023-01-29T03:07:37;95181.97;;;0.58;78.09
61292;BME280;47165;42.664;23.368;2023-01-29T03:13:02;95194.63;;;0.69;78.33
61292;BME280;47165;42.664;23.368;2023-01-29T03:15:34;95180.13;;;0.66;78.50
61292;BME280;47165;42.664;23.368;2023-01-29T03:18:34;95196.91;;;0.89;79.09
61292;BME280;47165;42.664;23.368;2023-01-29T03:21:09;95185.78;;;0.87;77.51
61292;BME280;47165;42.664;23.368;2023-01-29T03:23:56;95191.78;;;0.87;77.67
61292;BME280;47165;42.664;23.368;2023-01-29T03:26:41;95196.88;;;0.90;77.76
61292;BME280;47165;42.664;23.368;2023-01-29T03:29:29;95200.69;;;0.66;78.21
61292;BME280;47165;42.664;23.368;2023-01-29T03:32:15;95209.13;;;0.74;77.73
61292;BME280;47165;42.664;23.368;2023-01-29T03:34:46;95198.09;;;0.68;77.89
61292;BME280;47165;42.664;23.368;2023-01-29T03:39:38;95191.69;;;0.92;76.82
61292;BME280;47165;42.664;23.368;2023-01-29T03:42:28;95201.09;;;0.94;76.96
61292;BME280;47165;42.664;23.368;2023-01-29T03:45:16;95194.00;;;1.07;76.31
61292;BME280;47165;42.664;23.368;2023-01-29T03:53:07;95195.63;;;0.62;77.93
61292;BME280;47165;42.664;23.368;2023-01-29T03:55:48;95186.66;;;0.86;78.23
61292;BME280;47165;42.664;23.368;2023-01-29T04:01:02;95188.75;;;1.15;78.21
61292;BME280;47165;42.664;23.368;2023-01-29T04:03:33;95189.38;;;1.26;77.46
61292;BME280;47165;42.664;23.368;2023-01-29T04:06:10;95195.66;;;1.11;76.74
61292;BME280;47165;42.664;23.368;2023-01-29T04:09:17;95200.78;;;0.57;78.55
61292;BME280;47165;42.664;23.368;2023-01-29T04:11:49;95194.44;;;0.81;79.76
61292;BME280;47165;42.664;23.368;2023-01-29T04:14:18;95188.50;;;0.77;78.28
61292;BME280;47165;42.664;23.368;2023-01-29T04:16:48;95195.72;;;0.54;78.71
61292;BME280;47165;42.664;23.368;2023-01-29T04:19:15;95200.84;;;0.55;79.42
61292;BME280;47165;42.664;23.368;2023-01-29T04:21:41;95197.00;;;0.81;79.75
61292;BME280;47165;42.664;23.368;2023-01-29T04:24:07;95199.03;;;1.15;79.18
61292;BME280;47165;42.664;23.368;2023-01-29T04:26:53;95195.34;;;1.28;77.67
61292;BME280;47165;42.664;23.368;2023-01-29T04:31:59;95198.97;;;1.66;77.23
61292;BME280;47165;42.664;23.368;2023-01-29T04:39:55;95209.75;;;0.87;78.83
61292;BME280;47165;42.664;23.368;2023-01-29T04:47:38;95209.16;;;1.24;77.58
61292;BME280;47165;42.664;23.368;2023-01-29T04:53:02;95219.50;;;0.67;76.91
61292;BME280;47165;42.664;23.368;2023-01-29T04:55:55;95215.50;;;1.03;77.54
61292;BME280;47165;42.664;23.368;2023-01-29T05:00:48;95205.94;;;1.11;76.36
61292;BME280;47165;42.664;23.368;2023-01-29T05:03:18;95213.78;;;1.02;77.08
61292;BME280;47165;42.664;23.368;2023-01-29T05:05:47;95220.38;;;1.20;77.22
61292;BME280;47165;42.664;23.368;2023-01-29T05:08:18;95208.41;;;1.17;76.33
61292;BME280;47165;42.664;23.368;2023-01-29T05:10:46;95214.06;;;1.36;75.31
61292;BME280;47165;42.664;23.368;2023-01-29T05:13:14;95226.69;;;1.00;75.58
61292;BME280;47165;42.664;23.368;2023-01-29T05:16:03;95221.72;;;0.90;77.07
61292;BME280;47165;42.664;23.368;2023-01-29T05:18:30;95230.13;;;0.99;76.01
61292;BME280;47165;42.664;23.368;2023-01-29T05:20:58;95219.22;;;0.85;76.97
61292;BME280;47165;42.664;23.368;2023-01-29T05:23:26;95233.72;;;0.88;77.05
61292;BME280;47165;42.664;23.368;2023-01-29T05:25:51;95222.72;;;0.79;76.42
61292;BME280;47165;42.664;23.368;2023-01-29T05:28:17;95236.44;;;0.80;76.64
61292;BME280;47165;42.664;23.368;2023-01-29T05:30:47;95240.66;;;0.84;76.68
61292;BME280;47165;42.664;23.368;2023-01-29T05:33:22;95242.50;;;0.76;77.60
61292;BME280;47165;42.664;23.368;2023-01-29T05:35:48;95245.72;;;0.90;77.69
61292;BME280;47165;42.664;23.368;2023-01-29T05:38:14;95236.44;;;0.80;77.23
61292;BME280;47165;42.664;23.368;2023-01-29T05:40:40;95239.47;;;1.07;77.51
61292;BME280;47165;42.664;23.368;2023-01-29T05:43:14;95243.28;;;1.32;76.62
61292;BME280;47165;42.664;23.368;2023-01-29T05:45:40;95237.81;;;1.03;75.61
61292;BME280;47165;42.664;23.368;2023-01-29T05:48:05;95244.00;;;0.89;76.44
61292;BME280;47165;42.664;23.368;2023-01-29T05:50:31;95238.59;;;1.06;77.16
61292;BME280;47165;42.664;23.368;2023-01-29T05:52:58;95255.84;;;0.99;76.38
61292;BME280;47165;42.664;23.368;2023-01-29T05:55:23;95248.47;;;0.78;77.46
61292;BME280;47165;42.664;23.368;2023-01-29T05:57:49;95247.75;;;0.70;78.47
61292;BME280;47165;42.664;23.368;2023-01-29T06:00:15;95253.34;;;0.96;78.66
61292;BME280;47165;42.664;23.368;2023-01-29T06:02:40;95257.94;;;0.76;77.25
61292;BME280;47165;42.664;23.368;2023-01-29T06:05:06;95260.63;;;0.65;78.79
61292;BME280;47165;42.664;23.368;2023-01-29T06:07:31;95263.66;;;0.33;79.45
61292;BME280;47165;42.664;23.368;2023-01-29T06:09:57;95262.94;;;0.23;80.36
61292;BME280;47165;42.664;23.368;2023-01-29T06:12:22;95270.56;;;0.28;80.65
61292;BME280;47165;42.664;23.368;2023-01-29T06:14:48;95274.47;;;0.55;80.79
61292;BME280;47165;42.664;23.368;2023-01-29T06:17:13;95274.91;;;0.85;80.36
61292;BME280;47165;42.664;23.368;2023-01-29T06:19:39;95268.97;;;0.79;78.55
61292;BME280;47165;42.664;23.368;2023-01-29T06:22:04;95276.69;;;0.81;79.80
61292;BME280;47165;42.664;23.368;2023-01-29T06:24:29;95271.91;;;1.12;79.29
61292;BME280;47165;42.664;23.368;2023-01-29T06:26:57;95286.31;;;1.24;77.96
61292;BME280;47165;42.664;23.368;2023-01-29T06:29:22;95287.91;;;1.31;77.13
61292;BME280;47165;42.664;23.368;2023-01-29T06:31:47;95282.66;;;1.37;77.86
61292;BME280;47165;42.664;23.368;2023-01-29T06:34:13;95291.63;;;1.12;77.02
61292;BME280;47165;42.664;23.368;2023-01-29T06:36:38;95297.41;;;0.69;78.42
61292;BME280;47165;42.664;23.368;2023-01-29T06:39:05;95297.06;;;0.93;79.14
61292;BME280;47165;42.664;23.368;2023-01-29T06:41:31;95301.81;;;1.21;78.58
61292;BME280;47165;42.664;23.368;2023-01-29T06:43:56;95296.69;;;1.18;78.51
61292;BME280;47165;42.664;23.368;2023-01-29T06:46:21;95311.19;;;1.24;77.48
61292;BME280;47165;42.664;23.368;2023-01-29T06:48:47;95307.66;;;1.29;77.23
61292;BME280;47165;42.664;23.368;2023-01-29T06:51:12;95307.81;;;1.18;77.12
61292;BME280;47165;42.664;23.368;2023-01-29T06:53:38;95311.59;;;0.96;78.33
61292;BME280;47165;42.664;23.368;2023-01-29T06:56:04;95317.34;;;1.12;78.77
61292;BME280;47165;42.664;23.368;2023-01-29T06:58:30;95316.13;;;1.36;78.24
61292;BME280;47165;42.664;23.368;2023-01-29T07:01:07;95318.84;;;1.27;77.81
61292;BME280;47165;42.664;23.368;2023-01-29T07:03:33;95306.50;;;0.93;77.48
61292;BME280;47165;42.664;23.368;2023-01-29T07:05:58;95322.75;;;0.96;78.60
61292;BME280;47165;42.664;23.368;2023-01-29T07:08:24;95329.22;;;1.20;78.98
61292;BME280;47165;42.664;23.368;2023-01-29T07:10:49;95330.13;;;1.16;78.82
61292;BME280;47165;42.664;23.368;2023-01-29T07:13:15;95323.97;;;1.27;77.49
61292;BME280;47165;42.664;23.368;2023-01-29T07:15:41;95338.47;;;1.32;78.19
61292;BME280;47165;42.664;23.368;2023-01-29T07:18:08;95330.81;;;1.29;77.27
61292;BME280;47165;42.664;23.368;2023-01-29T07:20:38;95334.75;;;1.50;77.04
61292;BME280;47165;42.664;23.368;2023-01-29T07:23:04;95345.97;;;1.48;76.65
61292;BME280;47165;42.664;23.368;2023-01-29T07:25:30;95329.44;;;1.07;77.48
61292;BME280;47165;42.664;23.368;2023-01-29T07:27:55;95341.88;;;1.34;78.35
61292;BME280;47165;42.664;23.368;2023-01-29T07:30:21;95344.25;;;1.47;77.49
61292;BME280;47165;42.664;23.368;2023-01-29T07:32:46;95340.88;;;0.86;78.08
61292;BME280;47165;42.664;23.368;2023-01-29T07:35:12;95335.16;;;0.65;79.10
61292;BME280;47165;42.664;23.368;2023-01-29T07:37:37;95344.16;;;0.97;78.75
61292;BME280;47165;42.664;23.368;2023-01-29T07:40:03;95336.94;;;1.20;78.22
61292;BME280;47165;42.664;23.368;2023-01-29T07:42:34;95339.50;;;1.22;77.85
61292;BME280;47165;42.664;23.368;2023-01-29T07:45:00;95349.59;;;1.34;77.32
61292;BME280;47165;42.664;23.368;2023-01-29T07:47:25;95350.03;;;1.04;77.46
61292;BME280;47165;42.664;23.368;2023-01-29T07:49:51;95351.75;;;1.05;78.72
61292;BME280;47165;42.664;23.368;2023-01-29T07:52:16;95344.34;;;1.40;78.94
61292;BME280;47165;42.664;23.368;2023-01-29T07:54:42;95347.50;;;1.58;77.53
61292;BME280;47165;42.664;23.368;2023-01-29T07:57:08;95348.97;;;1.74;76.74
61292;BME280;47165;42.664;23.368;2023-01-29T07:59:34;95345.38;;;1.30;76.60
61292;BME280;47165;42.664;23.368;2023-01-29T08:01:59;95354.88;;;1.25;78.58
61292;BME280;47165;42.664;23.368;2023-01-29T08:04:25;95360.88;;;1.27;78.86
61292;BME280;47165;42.664;23.368;2023-01-29T08:06:50;95360.56;;;1.46;78.67
61292;BME280;47165;42.664;23.368;2023-01-29T08:09:15;95354.44;;;1.53;78.13
61292;BME280;47165;42.664;23.368;2023-01-29T08:11:41;95360.22;;;1.13;78.50
61292;BME280;47165;42.664;23.368;2023-01-29T08:14:06;95363.00;;;0.97;78.31
61292;BME280;47165;42.664;23.368;2023-01-29T08:16:34;95369.50;;;1.23;78.28
61292;BME280;47165;42.664;23.368;2023-01-29T08:19:01;95364.06;;;0.79;78.64
61292;BME280;47165;42.664;23.368;2023-01-29T08:21:26;95375.53;;;0.55;79.46
61292;BME280;47165;42.664;23.368;2023-01-29T08:23:52;95360.31;;;0.38;80.51
61292;BME280;47165;42.664;23.368;2023-01-29T08:26:17;95369.81;;;0.32;81.26
61292;BME280;47165;42.664;23.368;2023-01-29T08:28:43;95370.31;;;0.62;80.31
61292;BME280;47165;42.664;23.368;2023-01-29T08:31:15;95373.59;;;0.73;79.05
61292;BME280;47165;42.664;23.368;2023-01-29T08:33:41;95364.91;;;0.82;79.54
61292;BME280;47165;42.664;23.368;2023-01-29T08:36:07;95381.16;;;0.85;78.36
61292;BME280;47165;42.664;23.368;2023-01-29T08:38:33;95375.84;;;0.97;78.66
61292;BME280;47165;42.664;23.368;2023-01-29T08:40:58;95384.19;;;1.13;77.96
61292;BME280;47165;42.664;23.368;2023-01-29T08:43:24;95381.63;;;1.15;78.78
61292;BME280;47165;42.664;23.368;2023-01-29T08:45:49;95391.50;;;1.41;77.47
61292;BME280;47165;42.664;23.368;2023-01-29T08:48:14;95377.53;;;1.57;75.86
61292;BME280;47165;42.664;23.368;2023-01-29T08:50:40;95381.91;;;1.52;75.56
61292;BME280;47165;42.664;23.368;2023-01-29T08:53:07;95389.41;;;1.66;74.44
61292;BME280;47165;42.664;23.368;2023-01-29T08:55:37;95386.63;;;1.78;74.83
61292;BME280;47165;42.664;23.368;2023-01-29T08:58:04;95393.75;;;1.64;73.55
61292;BME280;47165;42.664;23.368;2023-01-29T09:00:30;95396.13;;;1.76;72.76
61292;BME280;47165;42.664;23.368;2023-01-29T09:02:56;95402.88;;;1.82;73.44
61292;BME280;47165;42.664;23.368;2023-01-29T09:05:24;95395.84;;;1.92;73.75
61292;BME280;47165;42.664;23.368;2023-01-29T09:07:49;95398.16;;;2.07;73.08
61292;BME280;47165;42.664;23.368;2023-01-29T09:10:15;95403.97;;;2.17;72.48
61292;BME280;47165;42.664;23.368;2023-01-29T09:12:41;95383.56;;;2.08;71.24
61292;BME280;47165;42.664;23.368;2023-01-29T09:15:06;95392.81;;;2.19;72.38
61292;BME280;47165;42.664;23.368;2023-01-29T09:17:32;95383.91;;;2.36;71.31
61292;BME280;47165;42.664;23.368;2023-01-29T09:19:57;95390.56;;;2.01;70.39
61292;BME280;47165;42.664;23.368;2023-01-29T09:22:23;95379.56;;;1.90;70.71
61292;BME280;47165;42.664;23.368;2023-01-29T09:24:48;95376.53;;;1.66;72.63
61292;BME280;47165;42.664;23.368;2023-01-29T09:27:14;95395.91;;;1.89;71.99
61292;BME280;47165;42.664;23.368;2023-01-29T09:29:39;95385.13;;;2.15;71.83
61292;BME280;47165;42.664;23.368;2023-01-29T09:32:05;95395.44;;;1.64;71.58
61292;BME280;47165;42.664;23.368;2023-01-29T09:34:30;95401.22;;;1.22;73.45
61292;BME280;47165;42.664;23.368;2023-01-29T09:36:56;95402.78;;;1.32;74.02
61292;BME280;47165;42.664;23.368;2023-01-29T09:39:21;95384.66;;;1.42;74.15
61292;BME280;47165;42.664;23.368;2023-01-29T09:42:08;95398.88;;;1.64;73.14
61292;BME280;47165;42.664;23.368;2023-01-29T09:44:48;95385.56;;;1.37;72.53
61292;BME280;47165;42.664;23.368;2023-01-29T09:47:22;95386.31;;;1.46;73.02
61292;BME280;47165;42.664;23.368;2023-01-29T09:49:53;95383.47;;;1.05;73.50
61292;BME280;47165;42.664;23.368;2023-01-29T09:54:56;95381.44;;;1.27;74.17
61292;BME280;47165;42.664;23.368;2023-01-29T09:57:30;95389.34;;;1.12;72.89
61292;BME280;47165;42.664;23.368;2023-01-29T09:59:58;95377.16;;;1.25;73.90
61292;BME280;47165;42.664;23.368;2023-01-29T10:02:58;95385.94;;;1.13;73.59
61292;BME280;47165;42.664;23.368;2023-01-29T10:08:39;95368.50;;;1.32;73.56
61292;BME280;47165;42.664;23.368;2023-01-29T10:22:01;95362.53;;;1.30;72.95
61292;BME280;47165;42.664;23.368;2023-01-29T10:24:32;95363.25;;;1.39;73.31
61292;BME280;47165;42.664;23.368;2023-01-29T10:27:02;95347.44;;;1.61;73.60
61292;BME280;47165;42.664;23.368;2023-01-29T10:29:30;95354.81;;;1.83;73.19
61292;BME280;47165;42.664;23.368;2023-01-29T10:32:00;95347.53;;;2.05;72.58
61292;BME280;47165;42.664;23.368;2023-01-29T10:34:39;95342.50;;;1.98;71.34
61292;BME280;47165;42.664;23.368;2023-01-29T10:37:21;95347.09;;;1.83;71.16
61292;BME280;47165;42.664;23.368;2023-01-29T10:39:48;95324.69;;;1.88;71.98
61292;BME280;47165;42.664;23.368;2023-01-29T10:42:29;95334.84;;;1.95;71.75
61292;BME280;47165;42.664;23.368;2023-01-29T10:52:54;95336.06;;;2.22;70.14
61292;BME280;47165;42.664;23.368;2023-01-29T10:55:42;95347.44;;;2.11;70.86
61292;BME280;47165;42.664;23.368;2023-01-29T11:00:54;95326.22;;;1.50;71.93
61292;BME280;47165;42.664;23.368;2023-01-29T11:03:27;95325.19;;;1.60;71.98
61292;BME280;47165;42.664;23.368;2023-01-29T11:06:28;95327.31;;;1.85;72.19
61292;BME280;47165;42.664;23.368;2023-01-29T11:09:09;95328.03;;;1.93;71.33
61292;BME280;47165;42.664;23.368;2023-01-29T11:14:11;95328.41;;;1.71;71.62
61292;BME280;47165;42.664;23.368;2023-01-29T11:16:47;95328.97;;;1.37;73.91
61292;BME280;47165;42.664;23.368;2023-01-29T11:19:14;95319.31;;;1.52;73.97
61292;BME280;47165;42.664;23.368;2023-01-29T11:21:59;95317.03;;;1.83;72.45
61292;BME280;47165;42.664;23.368;2023-01-29T11:24:26;95330.16;;;1.69;72.57
61292;BME280;47165;42.664;23.368;2023-01-29T11:26:54;95321.97;;;1.95;72.46
61292;BME280;47165;42.664;23.368;2023-01-29T11:29:42;95319.06;;;2.12;71.75
61292;BME280;47165;42.664;23.368;2023-01-29T11:32:23;95312.94;;;1.73;71.62
61292;BME280;47165;42.664;23.368;2023-01-29T11:37:44;95296.00;;;2.06;71.08
61292;BME280;47165;42.664;23.368;2023-01-29T11:42:49;95288.16;;;1.66;72.09
61292;BME280;47165;42.664;23.368;2023-01-29T11:47:47;95288.81;;;1.78;72.85
61292;BME280;47165;42.664;23.368;2023-01-29T11:50:20;95272.72;;;1.66;71.88
61292;BME280;47165;42.664;23.368;2023-01-29T11:52:47;95279.81;;;1.53;72.89
61292;BME280;47165;42.664;23.368;2023-01-29T11:55:23;95280.31;;;1.73;72.28
61292;BME280;47165;42.664;23.368;2023-01-29T11:58:03;95264.59;;;1.89;72.30
61292;BME280;47165;42.664;23.368;2023-01-29T12:00:32;95289.88;;;2.13;72.25
61292;BME280;47165;42.664;23.368;2023-01-29T12:05:27;95270.59;;;1.89;71.97
61292;BME280;47165;42.664;23.368;2023-01-29T12:07:55;95278.13;;;1.98;70.52
61292;BME280;47165;42.664;23.368;2023-01-29T12:10:35;95281.56;;;1.99;70.99
61292;BME280;47165;42.664;23.368;2023-01-29T12:15:38;95279.47;;;2.19;70.73
61292;BME280;47165;42.664;23.368;2023-01-29T12:18:07;95279.13;;;1.91;70.16
61292;BME280;47165;42.664;23.368;2023-01-29T12:20:54;95282.22;;;2.09;71.13
61292;BME280;47165;42.664;23.368;2023-01-29T12:23:35;95270.94;;;2.16;70.18
61292;BME280;47165;42.664;23.368;2023-01-29T12:28:49;95275.25;;;2.15;70.25
61292;BME280;47165;42.664;23.368;2023-01-29T12:31:27;95276.66;;;2.30;70.61
61292;BME280;47165;42.664;23.368;2023-01-29T12:36:23;95283.63;;;2.25;70.79
61292;BME280;47165;42.664;23.368;2023-01-29T12:38:50;95290.34;;;2.34;70.38
61292;BME280;47165;42.664;23.368;2023-01-29T12:41:32;95282.66;;;1.86;70.64
61292;BME280;47165;42.664;23.368;2023-01-29T12:44:10;95274.38;;;1.70;71.52
61292;BME280;47165;42.664;23.368;2023-01-29T12:46:43;95282.09;;;1.70;72.33
61292;BME280;47165;42.664;23.368;2023-01-29T12:49:24;95273.03;;;1.97;70.86
61292;BME280;47165;42.664;23.368;2023-01-29T12:52:06;95285.09;;;1.93;71.68
61292;BME280;47165;42.664;23.368;2023-01-29T12:54:40;95284.72;;;2.13;70.69
61292;BME280;47165;42.664;23.368;2023-01-29T12:57:36;95270.72;;;2.27;70.51
61292;BME280;47165;42.664;23.368;2023-01-29T13:00:12;95278.69;;;2.13;69.48
61292;BME280;47165;42.664;23.368;2023-01-29T13:08:05;95274.72;;;1.98;70.61
61292;BME280;47165;42.664;23.368;2023-01-29T13:10:35;95275.63;;;1.95;71.04
61292;BME280;47165;42.664;23.368;2023-01-29T13:13:05;95274.44;;;2.13;70.54
61292;BME280;47165;42.664;23.368;2023-01-29T13:15:38;95262.13;;;2.28;70.69
61292;BME280;47165;42.664;23.368;2023-01-29T13:20:43;95266.25;;;1.93;70.71
61292;BME280;47165;42.664;23.368;2023-01-29T13:23:34;95257.00;;;2.25;70.75
61292;BME280;47165;42.664;23.368;2023-01-29T13:26:01;95264.75;;;2.23;70.46
61292;BME280;47165;42.664;23.368;2023-01-29T13:28:28;95279.03;;;2.39;69.83
61292;BME280;47165;42.664;23.368;2023-01-29T13:31:27;95263.63;;;2.38;69.35
61292;BME280;47165;42.664;23.368;2023-01-29T13:34:12;95285.75;;;2.48;69.21
61292;BME280;47165;42.664;23.368;2023-01-29T13:36:56;95279.69;;;2.49;68.69
61292;BME280;47165;42.664;23.368;2023-01-29T13:41:50;95292.41;;;2.58;68.50
61292;BME280;47165;42.664;23.368;2023-01-29T13:47:10;95297.84;;;2.43;68.82
61292;BME280;47165;42.664;23.368;2023-01-29T13:49:52;95295.59;;;2.28;69.14
61292;BME280;47165;42.664;23.368;2023-01-29T13:52:43;95297.28;;;2.29;69.29
61292;BME280;47165;42.664;23.368;2023-01-29T13:57:49;95290.28;;;2.35;67.94
61292;BME280;47165;42.664;23.368;2023-01-29T14:07:55;95288.53;;;1.94;68.30
61292;BME280;47165;42.664;23.368;2023-01-29T14:10:22;95296.03;;;2.05;68.69
61292;BME280;47165;42.664;23.368;2023-01-29T14:12:49;95306.41;;;2.01;68.99
61292;BME280;47165;42.664;23.368;2023-01-29T14:17:57;95311.66;;;1.47;69.75
61292;BME280;47165;42.664;23.368;2023-01-29T14:20:49;95315.63;;;1.65;69.83
61292;BME280;47165;42.664;23.368;2023-01-29T14:26:29;95326.31;;;1.44;70.16
61292;BME280;47165;42.664;23.368;2023-01-29T14:28:58;95325.22;;;1.57;69.53
61292;BME280;47165;42.664;23.368;2023-01-29T14:31:35;95323.22;;;1.73;69.07
61292;BME280;47165;42.664;23.368;2023-01-29T14:34:02;95325.03;;;1.68;68.75
61292;BME280;47165;42.664;23.368;2023-01-29T14:36:31;95334.38;;;1.72;68.82
61292;BME280;47165;42.664;23.368;2023-01-29T14:39:03;95337.69;;;1.80;69.25
61292;BME280;47165;42.664;23.368;2023-01-29T14:41:31;95337.16;;;1.61;69.66
61292;BME280;47165;42.664;23.368;2023-01-29T14:47:03;95337.25;;;1.55;70.15
61292;BME280;47165;42.664;23.368;2023-01-29T14:52:24;95331.47;;;1.92;69.79
61292;BME280;47165;42.664;23.368;2023-01-29T14:54:52;95324.75;;;1.85;70.59
61292;BME280;47165;42.664;23.368;2023-01-29T14:57:18;95335.81;;;1.88;70.59
61292;BME280;47165;42.664;23.368;2023-01-29T15:02:21;95346.69;;;1.56;71.15
61292;BME280;47165;42.664;23.368;2023-01-29T15:04:53;95335.06;;;1.32;72.35
61292;BME280;47165;42.664;23.368;2023-01-29T15:07:34;95329.47;;;1.04;72.91
61292;BME280;47165;42.664;23.368;2023-01-29T15:13:07;95332.06;;;1.58;72.00
61292;BME280;47165;42.664;23.368;2023-01-29T15:15:43;95340.38;;;1.74;71.96
61292;BME280;47165;42.664;23.368;2023-01-29T15:18:16;95328.97;;;1.89;70.83
61292;BME280;47165;42.664;23.368;2023-01-29T15:20:43;95335.53;;;1.55;71.48
61292;BME280;47165;42.664;23.368;2023-01-29T15:25:51;95337.72;;;1.78;71.19
61292;BME280;47165;42.664;23.368;2023-01-29T15:28:18;95348.56;;;1.46;71.83
61292;BME280;47165;42.664;23.368;2023-01-29T15:30:44;95356.91;;;1.60;71.85
61292;BME280;47165;42.664;23.368;2023-01-29T15:33:11;95344.44;;;1.86;70.82
61292;BME280;47165;42.664;23.368;2023-01-29T15:35:41;95344.31;;;1.95;70.16
61292;BME280;47165;42.664;23.368;2023-01-29T15:38:16;95354.72;;;1.87;69.56
61292;BME280;47165;42.664;23.368;2023-01-29T15:40:57;95340.09;;;1.89;69.64